sensor_id;sensor_type;location;lat;lon;timestamp;P1;durP1;ratioP1;P2;durP2;ratioP2
18340;SDS011;9296;48.084;16.352;2023-03-01T00:03:23;28.70;;;13.77;;
18340;SDS011;9296;48.084;16.352;2023-03-01T00:05:51;29.20;;;14.50;;
18340;SDS011;9296;48.084;16.352;2023-03-01T00:08:19;30.40;;;15.23;;
18340;SDS011;9296;48.084;16.352;2023-03-01T00:10:46;29.60;;;14.97;;
18340;SDS011;9296;48.084;16.352;2023-03-01T00:13:13;28.80;;;14.93;;
18340;SDS011;9296;48.084;16.352;2023-03-01T00:15:40;26.57;;;15.00;;
18340;SDS011;9296;48.084;16.352;2023-03-01T00:18:07;28.97;;;14.87;;
18340;SDS011;9296;48.084;16.352;2023-03-01T00:20:34;29.70;;;14.60;;
18340;SDS011;9296;48.084;16.352;2023-03-01T00:23:01;27.20;;;14.23;;
18340;SDS011;9296;48.084;16.352;2023-03-01T00:25:29;25.40;;;14.20;;
18340;SDS011;9296;48.084;16.352;2023-03-01T00:34:40;26.30;;;14.43;;
18340;SDS011;9296;48.084;16.352;2023-03-01T00:37:07;29.13;;;14.07;;
18340;SDS011;9296;48.084;16.352;2023-03-01T00:39:34;28.07;;;14.37;;
18340;SDS011;9296;48.084;16.352;2023-03-01T00:42:02;27.70;;;14.83;;
18340;SDS011;9296;48.084;16.352;2023-03-01T00:47:34;29.63;;;14.63;;
18340;SDS011;9296;48.084;16.352;2023-03-01T00:50:00;26.73;;;14.37;;
18340;SDS011;9296;48.084;16.352;2023-03-01T00:52:27;28.13;;;14.67;;
18340;SDS011;9296;48.084;16.352;2023-03-01T00:54:54;27.13;;;14.57;;
18340;SDS011;9296;48.084;16.352;2023-03-01T00:57:24;27.30;;;15.03;;
18340;SDS011;9296;48.084;16.352;2023-03-01T01:03:14;26.20;;;14.50;;
18340;SDS011;9296;48.084;16.352;2023-03-01T01:05:40;27.17;;;14.57;;
18340;SDS011;9296;48.084;16.352;2023-03-01T01:08:07;29.70;;;14.47;;
18340;SDS011;9296;48.084;16.352;2023-03-01T01:10:34;26.07;;;14.47;;
18340;SDS011;9296;48.084;16.352;2023-03-01T01:19:46;28.90;;;14.27;;
18340;SDS011;9296;48.084;16.352;2023-03-01T01:22:13;27.80;;;14.47;;
18340;SDS011;9296;48.084;16.352;2023-03-01T01:24:40;28.43;;;14.70;;
18340;SDS011;9296;48.084;16.352;2023-03-01T01:27:07;31.67;;;14.87;;
18340;SDS011;9296;48.084;16.352;2023-03-01T01:32:55;26.83;;;14.50;;
18340;SDS011;9296;48.084;16.352;2023-03-01T01:35:23;28.90;;;14.93;;
18340;SDS011;9296;48.084;16.352;2023-03-01T01:37:50;26.33;;;15.40;;
18340;SDS011;9296;48.084;16.352;2023-03-01T01:40:17;28.57;;;15.27;;
18340;SDS011;9296;48.084;16.352;2023-03-01T01:42:44;29.27;;;15.73;;
18340;SDS011;9296;48.084;16.352;2023-03-01T01:48:34;28.93;;;15.33;;
18340;SDS011;9296;48.084;16.352;2023-03-01T01:51:09;26.83;;;14.23;;
18340;SDS011;9296;48.084;16.352;2023-03-01T01:53:40;28.53;;;15.43;;
18340;SDS011;9296;48.084;16.352;2023-03-01T01:56:08;26.17;;;14.33;;
18340;SDS011;9296;48.084;16.352;2023-03-01T01:58:38;29.50;;;15.50;;
18340;SDS011;9296;48.084;16.352;2023-03-01T02:01:06;29.80;;;15.33;;
18340;SDS011;9296;48.084;16.352;2023-03-01T02:03:34;25.90;;;14.93;;
18340;SDS011;9296;48.084;16.352;2023-03-01T02:06:12;27.97;;;14.57;;
18340;SDS011;9296;48.084;16.352;2023-03-01T02:08:45;27.77;;;15.20;;
18340;SDS011;9296;48.084;16.352;2023-03-01T02:11:15;27.10;;;14.60;;
18340;SDS011;9296;48.084;16.352;2023-03-01T02:13:44;28.63;;;15.63;;
18340;SDS011;9296;48.084;16.352;2023-03-01T02:16:14;28.93;;;15.50;;
18340;SDS011;9296;48.084;16.352;2023-03-01T02:18:42;29.23;;;15.77;;
18340;SDS011;9296;48.084;16.352;2023-03-01T02:21:20;28.90;;;15.27;;
18340;SDS011;9296;48.084;16.352;2023-03-01T02:23:56;27.47;;;15.00;;
18340;SDS011;9296;48.084;16.352;2023-03-01T02:26:27;30.20;;;15.47;;
18340;SDS011;9296;48.084;16.352;2023-03-01T02:29:01;24.73;;;14.53;;
18340;SDS011;9296;48.084;16.352;2023-03-01T02:31:30;27.23;;;15.43;;
18340;SDS011;9296;48.084;16.352;2023-03-01T02:34:11;27.63;;;14.93;;
18340;SDS011;9296;48.084;16.352;2023-03-01T02:36:41;29.07;;;15.97;;
18340;SDS011;9296;48.084;16.352;2023-03-01T02:39:12;27.47;;;15.73;;
18340;SDS011;9296;48.084;16.352;2023-03-01T02:41:44;27.53;;;15.00;;
18340;SDS011;9296;48.084;16.352;2023-03-01T02:47:40;30.37;;;15.17;;
18340;SDS011;9296;48.084;16.352;2023-03-01T02:50:15;29.93;;;15.50;;
18340;SDS011;9296;48.084;16.352;2023-03-01T02:52:53;27.43;;;15.73;;
18340;SDS011;9296;48.084;16.352;2023-03-01T02:55:27;25.60;;;14.53;;
18340;SDS011;9296;48.084;16.352;2023-03-01T02:57:54;27.83;;;15.60;;
18340;SDS011;9296;48.084;16.352;2023-03-01T03:03:46;27.67;;;15.60;;
18340;SDS011;9296;48.084;16.352;2023-03-01T03:06:13;28.63;;;15.50;;
18340;SDS011;9296;48.084;16.352;2023-03-01T03:08:40;26.07;;;15.30;;
18340;SDS011;9296;48.084;16.352;2023-03-01T03:11:07;32.27;;;15.77;;
18340;SDS011;9296;48.084;16.352;2023-03-01T03:20:11;28.50;;;15.37;;
18340;SDS011;9296;48.084;16.352;2023-03-01T03:22:44;31.30;;;16.23;;
18340;SDS011;9296;48.084;16.352;2023-03-01T03:25:11;27.07;;;15.97;;
18340;SDS011;9296;48.084;16.352;2023-03-01T03:27:38;30.50;;;15.63;;
18340;SDS011;9296;48.084;16.352;2023-03-01T03:33:12;33.60;;;17.23;;
18340;SDS011;9296;48.084;16.352;2023-03-01T03:35:41;34.13;;;17.77;;
18340;SDS011;9296;48.084;16.352;2023-03-01T03:38:11;33.47;;;16.93;;
18340;SDS011;9296;48.084;16.352;2023-03-01T03:40:44;29.10;;;16.70;;
18340;SDS011;9296;48.084;16.352;2023-03-01T03:43:12;32.53;;;17.27;;
18340;SDS011;9296;48.084;16.352;2023-03-01T03:49:03;30.77;;;16.27;;
18340;SDS011;9296;48.084;16.352;2023-03-01T03:51:31;31.63;;;17.80;;
18340;SDS011;9296;48.084;16.352;2023-03-01T03:53:58;33.50;;;17.80;;
18340;SDS011;9296;48.084;16.352;2023-03-01T03:56:25;34.53;;;17.70;;
18340;SDS011;9296;48.084;16.352;2023-03-01T04:01:59;32.47;;;17.37;;
18340;SDS011;9296;48.084;16.352;2023-03-01T04:04:26;34.47;;;17.40;;
18340;SDS011;9296;48.084;16.352;2023-03-01T04:06:54;33.47;;;17.37;;
18340;SDS011;9296;48.084;16.352;2023-03-01T04:09:21;31.57;;;16.60;;
18340;SDS011;9296;48.084;16.352;2023-03-01T04:11:48;31.03;;;17.87;;
18340;SDS011;9296;48.084;16.352;2023-03-01T04:14:15;35.00;;;17.57;;
18340;SDS011;9296;48.084;16.352;2023-03-01T04:16:42;30.67;;;17.30;;
18340;SDS011;9296;48.084;16.352;2023-03-01T04:19:08;32.70;;;17.53;;
18340;SDS011;9296;48.084;16.352;2023-03-01T04:21:35;36.63;;;18.37;;
18340;SDS011;9296;48.084;16.352;2023-03-01T04:24:04;32.67;;;17.83;;
18340;SDS011;9296;48.084;16.352;2023-03-01T04:26:31;33.83;;;17.93;;
18340;SDS011;9296;48.084;16.352;2023-03-01T04:35:18;30.97;;;16.80;;
18340;SDS011;9296;48.084;16.352;2023-03-01T04:37:45;35.77;;;17.30;;
18340;SDS011;9296;48.084;16.352;2023-03-01T04:40:14;32.80;;;17.50;;
18340;SDS011;9296;48.084;16.352;2023-03-01T04:42:42;33.90;;;17.33;;
18340;SDS011;9296;48.084;16.352;2023-03-01T04:48:30;32.63;;;17.73;;
18340;SDS011;9296;48.084;16.352;2023-03-01T04:50:58;32.10;;;16.97;;
18340;SDS011;9296;48.084;16.352;2023-03-01T04:53:26;34.93;;;17.40;;
18340;SDS011;9296;48.084;16.352;2023-03-01T04:55:55;34.77;;;18.00;;
18340;SDS011;9296;48.084;16.352;2023-03-01T04:58:22;33.13;;;17.40;;
18340;SDS011;9296;48.084;16.352;2023-03-01T05:04:11;34.97;;;18.00;;
18340;SDS011;9296;48.084;16.352;2023-03-01T05:06:38;37.83;;;19.07;;
18340;SDS011;9296;48.084;16.352;2023-03-01T05:09:05;35.73;;;18.17;;
18340;SDS011;9296;48.084;16.352;2023-03-01T05:11:34;33.03;;;18.37;;
18340;SDS011;9296;48.084;16.352;2023-03-01T05:20:27;68.47;;;31.20;;
18340;SDS011;9296;48.084;16.352;2023-03-01T05:22:56;59.37;;;26.73;;
18340;SDS011;9296;48.084;16.352;2023-03-01T05:25:24;54.50;;;25.30;;
18340;SDS011;9296;48.084;16.352;2023-03-01T05:27:53;43.83;;;22.53;;
18340;SDS011;9296;48.084;16.352;2023-03-01T05:33:42;42.93;;;22.10;;
18340;SDS011;9296;48.084;16.352;2023-03-01T05:36:10;43.07;;;22.23;;
18340;SDS011;9296;48.084;16.352;2023-03-01T05:38:37;45.63;;;23.93;;
18340;SDS011;9296;48.084;16.352;2023-03-01T05:41:04;42.97;;;22.00;;
18340;SDS011;9296;48.084;16.352;2023-03-01T05:43:32;43.97;;;22.40;;
18340;SDS011;9296;48.084;16.352;2023-03-01T05:45:59;44.53;;;22.20;;
18340;SDS011;9296;48.084;16.352;2023-03-01T05:48:26;46.23;;;23.03;;
18340;SDS011;9296;48.084;16.352;2023-03-01T05:50:53;46.40;;;23.30;;
18340;SDS011;9296;48.084;16.352;2023-03-01T05:53:20;43.60;;;23.00;;
18340;SDS011;9296;48.084;16.352;2023-03-01T05:55:47;44.93;;;22.60;;
18340;SDS011;9296;48.084;16.352;2023-03-01T05:58:15;45.33;;;21.93;;
18340;SDS011;9296;48.084;16.352;2023-03-01T06:04:07;41.27;;;21.80;;
18340;SDS011;9296;48.084;16.352;2023-03-01T06:06:34;42.17;;;21.27;;
18340;SDS011;9296;48.084;16.352;2023-03-01T06:09:02;41.10;;;21.97;;
18340;SDS011;9296;48.084;16.352;2023-03-01T06:11:30;42.67;;;22.30;;
18340;SDS011;9296;48.084;16.352;2023-03-01T06:13:56;47.97;;;23.83;;
18340;SDS011;9296;48.084;16.352;2023-03-01T06:16:23;46.20;;;22.63;;
18340;SDS011;9296;48.084;16.352;2023-03-01T06:18:50;43.27;;;23.43;;
18340;SDS011;9296;48.084;16.352;2023-03-01T06:21:18;44.83;;;23.88;;
18340;SDS011;9296;48.084;16.352;2023-03-01T06:23:45;43.25;;;22.85;;
18340;SDS011;9296;48.084;16.352;2023-03-01T06:26:12;47.33;;;23.37;;
18340;SDS011;9296;48.084;16.352;2023-03-01T06:28:39;45.30;;;23.03;;
18340;SDS011;9296;48.084;16.352;2023-03-01T06:31:06;44.43;;;24.43;;
18340;SDS011;9296;48.084;16.352;2023-03-01T06:33:34;42.97;;;22.73;;
18340;SDS011;9296;48.084;16.352;2023-03-01T06:36:02;45.73;;;23.90;;
18340;SDS011;9296;48.084;16.352;2023-03-01T06:38:30;41.53;;;22.23;;
18340;SDS011;9296;48.084;16.352;2023-03-01T06:40:57;42.95;;;22.33;;
18340;SDS011;9296;48.084;16.352;2023-03-01T06:43:24;43.33;;;22.17;;
18340;SDS011;9296;48.084;16.352;2023-03-01T06:45:51;44.43;;;22.47;;
18340;SDS011;9296;48.084;16.352;2023-03-01T06:48:18;42.47;;;22.23;;
18340;SDS011;9296;48.084;16.352;2023-03-01T06:50:45;42.83;;;23.57;;
18340;SDS011;9296;48.084;16.352;2023-03-01T06:53:12;40.42;;;22.38;;
18340;SDS011;9296;48.084;16.352;2023-03-01T06:55:40;41.88;;;22.52;;
18340;SDS011;9296;48.084;16.352;2023-03-01T06:58:08;42.83;;;23.47;;
18340;SDS011;9296;48.084;16.352;2023-03-01T07:00:35;49.70;;;22.60;;
18340;SDS011;9296;48.084;16.352;2023-03-01T07:03:02;44.17;;;22.53;;
18340;SDS011;9296;48.084;16.352;2023-03-01T07:05:29;41.65;;;21.92;;
18340;SDS011;9296;48.084;16.352;2023-03-01T07:07:56;44.53;;;23.60;;
18340;SDS011;9296;48.084;16.352;2023-03-01T07:10:23;41.67;;;22.63;;
18340;SDS011;9296;48.084;16.352;2023-03-01T07:12:52;47.25;;;23.63;;
18340;SDS011;9296;48.084;16.352;2023-03-01T07:18:24;47.25;;;23.90;;
18340;SDS011;9296;48.084;16.352;2023-03-01T07:20:51;45.85;;;23.75;;
18340;SDS011;9296;48.084;16.352;2023-03-01T07:23:18;45.45;;;24.00;;
18340;SDS011;9296;48.084;16.352;2023-03-01T07:25:50;47.60;;;24.70;;
18340;SDS011;9296;48.084;16.352;2023-03-01T07:28:19;44.53;;;23.75;;
18340;SDS011;9296;48.084;16.352;2023-03-01T07:30:46;45.50;;;24.73;;
18340;SDS011;9296;48.084;16.352;2023-03-01T07:33:13;51.05;;;25.10;;
18340;SDS011;9296;48.084;16.352;2023-03-01T07:35:40;49.50;;;24.40;;
18340;SDS011;9296;48.084;16.352;2023-03-01T07:38:07;46.80;;;24.15;;
18340;SDS011;9296;48.084;16.352;2023-03-01T07:40:34;48.28;;;23.08;;
18340;SDS011;9296;48.084;16.352;2023-03-01T07:43:01;48.38;;;23.85;;
18340;SDS011;9296;48.084;16.352;2023-03-01T07:48:51;45.15;;;23.65;;
18340;SDS011;9296;48.084;16.352;2023-03-01T07:51:18;47.47;;;23.00;;
18340;SDS011;9296;48.084;16.352;2023-03-01T07:53:45;45.42;;;24.05;;
18340;SDS011;9296;48.084;16.352;2023-03-01T07:56:13;47.63;;;24.55;;
18340;SDS011;9296;48.084;16.352;2023-03-01T07:58:43;43.55;;;23.13;;
18340;SDS011;9296;48.084;16.352;2023-03-01T08:04:34;43.22;;;23.17;;
18340;SDS011;9296;48.084;16.352;2023-03-01T08:07:01;47.92;;;24.73;;
18340;SDS011;9296;48.084;16.352;2023-03-01T08:09:31;43.17;;;23.40;;
18340;SDS011;9296;48.084;16.352;2023-03-01T08:12:00;39.85;;;22.63;;
18340;SDS011;9296;48.084;16.352;2023-03-01T08:14:27;38.35;;;22.30;;
18340;SDS011;9296;48.084;16.352;2023-03-01T08:16:54;51.10;;;23.00;;
18340;SDS011;9296;48.084;16.352;2023-03-01T08:19:21;40.42;;;23.13;;
18340;SDS011;9296;48.084;16.352;2023-03-01T08:21:49;43.80;;;24.25;;
18340;SDS011;9296;48.084;16.352;2023-03-01T08:24:16;47.10;;;24.45;;
18340;SDS011;9296;48.084;16.352;2023-03-01T08:26:43;47.28;;;24.25;;
18340;SDS011;9296;48.084;16.352;2023-03-01T08:29:10;43.00;;;24.88;;
18340;SDS011;9296;48.084;16.352;2023-03-01T08:34:24;50.15;;;26.95;;
18340;SDS011;9296;48.084;16.352;2023-03-01T08:36:53;42.50;;;24.40;;
18340;SDS011;9296;48.084;16.352;2023-03-01T08:39:20;43.00;;;24.75;;
18340;SDS011;9296;48.084;16.352;2023-03-01T08:41:47;43.47;;;24.65;;
18340;SDS011;9296;48.084;16.352;2023-03-01T08:44:14;49.40;;;25.70;;
18340;SDS011;9296;48.084;16.352;2023-03-01T08:50:05;41.63;;;24.02;;
18340;SDS011;9296;48.084;16.352;2023-03-01T08:52:34;41.33;;;24.55;;
18340;SDS011;9296;48.084;16.352;2023-03-01T08:55:00;43.08;;;25.08;;
18340;SDS011;9296;48.084;16.352;2023-03-01T08:57:27;41.60;;;25.83;;
18340;SDS011;9296;48.084;16.352;2023-03-01T08:59:54;42.90;;;25.67;;
18340;SDS011;9296;48.084;16.352;2023-03-01T09:02:22;44.28;;;26.75;;
18340;SDS011;9296;48.084;16.352;2023-03-01T09:04:49;46.58;;;26.65;;
18340;SDS011;9296;48.084;16.352;2023-03-01T09:07:15;46.08;;;26.52;;
18340;SDS011;9296;48.084;16.352;2023-03-01T09:09:44;46.45;;;27.45;;
18340;SDS011;9296;48.084;16.352;2023-03-01T09:12:11;43.88;;;25.77;;
18340;SDS011;9296;48.084;16.352;2023-03-01T09:14:38;43.28;;;26.73;;
18340;SDS011;9296;48.084;16.352;2023-03-01T09:17:06;43.20;;;25.77;;
18340;SDS011;9296;48.084;16.352;2023-03-01T09:19:33;44.17;;;26.30;;
18340;SDS011;9296;48.084;16.352;2023-03-01T09:21:59;44.80;;;25.02;;
18340;SDS011;9296;48.084;16.352;2023-03-01T09:24:26;44.15;;;25.88;;
18340;SDS011;9296;48.084;16.352;2023-03-01T09:26:55;43.97;;;26.00;;
18340;SDS011;9296;48.084;16.352;2023-03-01T09:29:23;39.95;;;25.30;;
18340;SDS011;9296;48.084;16.352;2023-03-01T09:32:09;41.58;;;25.70;;
18340;SDS011;9296;48.084;16.352;2023-03-01T09:34:36;40.83;;;24.98;;
18340;SDS011;9296;48.084;16.352;2023-03-01T09:37:23;44.72;;;24.98;;
18340;SDS011;9296;48.084;16.352;2023-03-01T09:39:50;37.97;;;22.50;;
18340;SDS011;9296;48.084;16.352;2023-03-01T09:42:18;39.40;;;24.50;;
18340;SDS011;9296;48.084;16.352;2023-03-01T09:44:46;37.75;;;23.77;;
18340;SDS011;9296;48.084;16.352;2023-03-01T09:47:18;38.20;;;24.42;;
18340;SDS011;9296;48.084;16.352;2023-03-01T09:49:48;41.80;;;24.77;;
18340;SDS011;9296;48.084;16.352;2023-03-01T09:52:26;38.15;;;23.75;;
18340;SDS011;9296;48.084;16.352;2023-03-01T09:54:59;37.08;;;22.95;;
18340;SDS011;9296;48.084;16.352;2023-03-01T09:57:30;39.03;;;23.85;;
18340;SDS011;9296;48.084;16.352;2023-03-01T10:00:08;41.30;;;24.30;;
18340;SDS011;9296;48.084;16.352;2023-03-01T10:02:43;40.45;;;24.48;;
18340;SDS011;9296;48.084;16.352;2023-03-01T10:11:00;35.08;;;23.58;;
18340;SDS011;9296;48.084;16.352;2023-03-01T10:13:31;38.78;;;23.25;;
18340;SDS011;9296;48.084;16.352;2023-03-01T10:18:53;37.85;;;22.95;;
18340;SDS011;9296;48.084;16.352;2023-03-01T10:21:25;34.33;;;22.63;;
18340;SDS011;9296;48.084;16.352;2023-03-01T10:23:53;32.38;;;22.05;;
18340;SDS011;9296;48.084;16.352;2023-03-01T10:26:28;36.70;;;23.92;;
18340;SDS011;9296;48.084;16.352;2023-03-01T10:29:07;34.15;;;23.23;;
18340;SDS011;9296;48.084;16.352;2023-03-01T10:31:37;35.13;;;23.90;;
18340;SDS011;9296;48.084;16.352;2023-03-01T10:34:08;36.10;;;23.38;;
18340;SDS011;9296;48.084;16.352;2023-03-01T10:36:37;32.85;;;21.90;;
18340;SDS011;9296;48.084;16.352;2023-03-01T10:39:11;34.55;;;23.73;;
18340;SDS011;9296;48.084;16.352;2023-03-01T10:41:44;31.65;;;22.50;;
18340;SDS011;9296;48.084;16.352;2023-03-01T10:44:40;31.70;;;22.02;;
18340;SDS011;9296;48.084;16.352;2023-03-01T10:50:31;30.85;;;22.13;;
18340;SDS011;9296;48.084;16.352;2023-03-01T10:52:59;31.30;;;21.13;;
18340;SDS011;9296;48.084;16.352;2023-03-01T10:55:28;31.23;;;21.40;;
18340;SDS011;9296;48.084;16.352;2023-03-01T10:58:06;29.48;;;21.00;;
18340;SDS011;9296;48.084;16.352;2023-03-01T11:00:46;28.55;;;19.42;;
18340;SDS011;9296;48.084;16.352;2023-03-01T11:03:17;29.23;;;20.08;;
18340;SDS011;9296;48.084;16.352;2023-03-01T11:05:51;28.92;;;20.08;;
18340;SDS011;9296;48.084;16.352;2023-03-01T11:08:31;31.92;;;21.02;;
18340;SDS011;9296;48.084;16.352;2023-03-01T11:11:04;30.77;;;20.50;;
18340;SDS011;9296;48.084;16.352;2023-03-01T11:13:32;29.92;;;20.17;;
18340;SDS011;9296;48.084;16.352;2023-03-01T11:16:24;30.75;;;20.35;;
18340;SDS011;9296;48.084;16.352;2023-03-01T11:18:59;28.77;;;19.60;;
18340;SDS011;9296;48.084;16.352;2023-03-01T11:21:30;26.88;;;18.63;;
18340;SDS011;9296;48.084;16.352;2023-03-01T11:24:01;28.40;;;18.13;;
18340;SDS011;9296;48.084;16.352;2023-03-01T11:26:30;25.33;;;18.10;;
18340;SDS011;9296;48.084;16.352;2023-03-01T11:29:04;27.15;;;17.73;;
18340;SDS011;9296;48.084;16.352;2023-03-01T11:35:03;27.92;;;18.85;;
18340;SDS011;9296;48.084;16.352;2023-03-01T11:37:37;27.77;;;17.92;;
18340;SDS011;9296;48.084;16.352;2023-03-01T11:40:11;25.35;;;17.73;;
18340;SDS011;9296;48.084;16.352;2023-03-01T11:42:53;25.75;;;18.30;;
18340;SDS011;9296;48.084;16.352;2023-03-01T11:51:58;28.90;;;18.00;;
18340;SDS011;9296;48.084;16.352;2023-03-01T11:54:36;28.17;;;18.48;;
18340;SDS011;9296;48.084;16.352;2023-03-01T11:57:18;29.90;;;19.35;;
18340;SDS011;9296;48.084;16.352;2023-03-01T11:59:58;27.55;;;18.42;;
18340;SDS011;9296;48.084;16.352;2023-03-01T12:09:12;27.63;;;18.50;;
18340;SDS011;9296;48.084;16.352;2023-03-01T12:11:52;27.10;;;19.05;;
18340;SDS011;9296;48.084;16.352;2023-03-01T12:20:56;27.48;;;18.45;;
18340;SDS011;9296;48.084;16.352;2023-03-01T12:23:35;28.92;;;18.65;;
18340;SDS011;9296;48.084;16.352;2023-03-01T12:26:23;26.60;;;18.60;;
18340;SDS011;9296;48.084;16.352;2023-03-01T12:28:57;27.75;;;18.48;;
18340;SDS011;9296;48.084;16.352;2023-03-01T12:32:00;28.48;;;18.65;;
18340;SDS011;9296;48.084;16.352;2023-03-01T12:34:43;30.98;;;18.65;;
18340;SDS011;9296;48.084;16.352;2023-03-01T12:37:29;30.40;;;19.13;;
18340;SDS011;9296;48.084;16.352;2023-03-01T12:40:24;30.15;;;18.95;;
18340;SDS011;9296;48.084;16.352;2023-03-01T12:43:17;27.25;;;17.25;;
18340;SDS011;9296;48.084;16.352;2023-03-01T12:49:14;29.90;;;18.83;;
18340;SDS011;9296;48.084;16.352;2023-03-01T12:51:49;26.65;;;18.58;;
18340;SDS011;9296;48.084;16.352;2023-03-01T12:54:20;27.05;;;17.95;;
18340;SDS011;9296;48.084;16.352;2023-03-01T12:56:52;26.60;;;18.10;;
18340;SDS011;9296;48.084;16.352;2023-03-01T12:59:23;28.98;;;18.00;;
18340;SDS011;9296;48.084;16.352;2023-03-01T13:02:14;26.90;;;18.08;;
18340;SDS011;9296;48.084;16.352;2023-03-01T13:04:51;25.70;;;17.83;;
18340;SDS011;9296;48.084;16.352;2023-03-01T13:07:29;28.83;;;18.55;;
18340;SDS011;9296;48.084;16.352;2023-03-01T13:10:06;25.95;;;16.77;;
18340;SDS011;9296;48.084;16.352;2023-03-01T13:12:45;26.77;;;18.02;;
18340;SDS011;9296;48.084;16.352;2023-03-01T13:18:03;26.13;;;18.58;;
18340;SDS011;9296;48.084;16.352;2023-03-01T13:20:53;28.25;;;17.92;;
18340;SDS011;9296;48.084;16.352;2023-03-01T13:23:26;25.40;;;17.10;;
18340;SDS011;9296;48.084;16.352;2023-03-01T13:26:03;24.50;;;16.15;;
18340;SDS011;9296;48.084;16.352;2023-03-01T13:28:38;29.63;;;16.70;;
18340;SDS011;9296;48.084;16.352;2023-03-01T13:37:24;26.67;;;17.63;;
18340;SDS011;9296;48.084;16.352;2023-03-01T13:40:04;29.90;;;17.98;;
18340;SDS011;9296;48.084;16.352;2023-03-01T13:42:52;26.58;;;17.83;;
18340;SDS011;9296;48.084;16.352;2023-03-01T13:45:21;27.45;;;17.63;;
18340;SDS011;9296;48.084;16.352;2023-03-01T13:47:53;28.95;;;17.17;;
18340;SDS011;9296;48.084;16.352;2023-03-01T13:50:23;26.48;;;17.63;;
18340;SDS011;9296;48.084;16.352;2023-03-01T13:52:56;24.05;;;17.23;;
18340;SDS011;9296;48.084;16.352;2023-03-01T13:55:27;27.70;;;17.75;;
18340;SDS011;9296;48.084;16.352;2023-03-01T13:57:59;27.50;;;17.67;;
18340;SDS011;9296;48.084;16.352;2023-03-01T14:03:20;25.35;;;16.90;;
18340;SDS011;9296;48.084;16.352;2023-03-01T14:05:57;24.77;;;16.88;;
18340;SDS011;9296;48.084;16.352;2023-03-01T14:08:28;24.38;;;16.00;;
18340;SDS011;9296;48.084;16.352;2023-03-01T14:14:06;23.83;;;16.17;;
18340;SDS011;9296;48.084;16.352;2023-03-01T14:16:50;22.73;;;15.57;;
18340;SDS011;9296;48.084;16.352;2023-03-01T14:19:26;22.42;;;14.98;;
18340;SDS011;9296;48.084;16.352;2023-03-01T14:22:02;21.65;;;14.57;;
18340;SDS011;9296;48.084;16.352;2023-03-01T14:24:40;21.92;;;14.85;;
18340;SDS011;9296;48.084;16.352;2023-03-01T14:27:14;24.23;;;15.32;;
18340;SDS011;9296;48.084;16.352;2023-03-01T14:29:42;21.85;;;15.43;;
18340;SDS011;9296;48.084;16.352;2023-03-01T14:32:11;21.48;;;14.65;;
18340;SDS011;9296;48.084;16.352;2023-03-01T14:34:44;22.98;;;14.52;;
18340;SDS011;9296;48.084;16.352;2023-03-01T14:37:21;22.40;;;14.85;;
18340;SDS011;9296;48.084;16.352;2023-03-01T14:39:51;19.58;;;14.55;;
18340;SDS011;9296;48.084;16.352;2023-03-01T14:42:19;24.05;;;14.52;;
18340;SDS011;9296;48.084;16.352;2023-03-01T14:44:48;22.13;;;14.88;;
18340;SDS011;9296;48.084;16.352;2023-03-01T14:47:20;23.08;;;14.98;;
18340;SDS011;9296;48.084;16.352;2023-03-01T14:49:54;20.17;;;14.45;;
18340;SDS011;9296;48.084;16.352;2023-03-01T14:52:25;24.95;;;15.43;;
18340;SDS011;9296;48.084;16.352;2023-03-01T14:55:00;24.73;;;14.68;;
18340;SDS011;9296;48.084;16.352;2023-03-01T14:57:30;23.90;;;15.25;;
18340;SDS011;9296;48.084;16.352;2023-03-01T14:59:58;25.48;;;14.82;;
18340;SDS011;9296;48.084;16.352;2023-03-01T15:02:29;25.95;;;15.45;;
18340;SDS011;9296;48.084;16.352;2023-03-01T15:04:57;25.77;;;14.82;;
18340;SDS011;9296;48.084;16.352;2023-03-01T15:07:28;23.25;;;15.82;;
18340;SDS011;9296;48.084;16.352;2023-03-01T15:09:57;24.50;;;15.52;;
18340;SDS011;9296;48.084;16.352;2023-03-01T15:12:36;26.08;;;15.57;;
18340;SDS011;9296;48.084;16.352;2023-03-01T15:17:59;24.77;;;16.55;;
18340;SDS011;9296;48.084;16.352;2023-03-01T15:20:28;26.08;;;17.10;;
18340;SDS011;9296;48.084;16.352;2023-03-01T15:23:00;25.98;;;17.58;;
18340;SDS011;9296;48.084;16.352;2023-03-01T15:25:28;27.60;;;17.25;;
18340;SDS011;9296;48.084;16.352;2023-03-01T15:27:58;27.45;;;17.73;;
18340;SDS011;9296;48.084;16.352;2023-03-01T15:30:27;25.88;;;17.55;;
18340;SDS011;9296;48.084;16.352;2023-03-01T15:38:58;28.02;;;17.73;;
18340;SDS011;9296;48.084;16.352;2023-03-01T15:41:27;29.63;;;18.00;;
18340;SDS011;9296;48.084;16.352;2023-03-01T15:43:58;27.67;;;17.75;;
18340;SDS011;9296;48.084;16.352;2023-03-01T15:46:45;25.83;;;17.70;;
18340;SDS011;9296;48.084;16.352;2023-03-01T15:49:21;29.63;;;18.50;;
18340;SDS011;9296;48.084;16.352;2023-03-01T15:51:56;27.63;;;17.98;;
18340;SDS011;9296;48.084;16.352;2023-03-01T15:54:23;29.83;;;18.83;;
18340;SDS011;9296;48.084;16.352;2023-03-01T15:56:51;29.98;;;18.95;;
18340;SDS011;9296;48.084;16.352;2023-03-01T15:59:20;29.40;;;19.25;;
18340;SDS011;9296;48.084;16.352;2023-03-01T16:01:47;31.05;;;18.95;;
18340;SDS011;9296;48.084;16.352;2023-03-01T16:04:16;31.02;;;18.25;;
18340;SDS011;9296;48.084;16.352;2023-03-01T16:06:48;29.30;;;18.25;;
18340;SDS011;9296;48.084;16.352;2023-03-01T16:09:19;27.42;;;18.52;;
18340;SDS011;9296;48.084;16.352;2023-03-01T16:11:48;29.23;;;18.70;;
18340;SDS011;9296;48.084;16.352;2023-03-01T16:14:15;29.85;;;19.17;;
18340;SDS011;9296;48.084;16.352;2023-03-01T16:20:07;31.33;;;21.10;;
18340;SDS011;9296;48.084;16.352;2023-03-01T16:22:35;31.63;;;21.00;;
18340;SDS011;9296;48.084;16.352;2023-03-01T16:25:02;32.17;;;20.42;;
18340;SDS011;9296;48.084;16.352;2023-03-01T16:27:30;43.10;;;27.77;;
18340;SDS011;9296;48.084;16.352;2023-03-01T16:29:57;40.30;;;23.35;;
18340;SDS011;9296;48.084;16.352;2023-03-01T16:32:43;37.80;;;25.77;;
18340;SDS011;9296;48.084;16.352;2023-03-01T16:35:14;37.65;;;24.50;;
18340;SDS011;9296;48.084;16.352;2023-03-01T16:37:41;39.30;;;22.83;;
18340;SDS011;9296;48.084;16.352;2023-03-01T16:40:14;34.88;;;22.40;;
18340;SDS011;9296;48.084;16.352;2023-03-01T16:42:44;32.10;;;19.58;;
18340;SDS011;9296;48.084;16.352;2023-03-01T16:45:11;31.17;;;19.35;;
18340;SDS011;9296;48.084;16.352;2023-03-01T16:47:37;32.15;;;19.23;;
18340;SDS011;9296;48.084;16.352;2023-03-01T16:50:04;28.85;;;19.27;;
18340;SDS011;9296;48.084;16.352;2023-03-01T16:52:33;31.63;;;19.92;;
18340;SDS011;9296;48.084;16.352;2023-03-01T16:55:00;29.77;;;19.00;;
18340;SDS011;9296;48.084;16.352;2023-03-01T16:57:29;30.25;;;18.83;;
18340;SDS011;9296;48.084;16.352;2023-03-01T16:59:56;39.42;;;24.52;;
18340;SDS011;9296;48.084;16.352;2023-03-01T17:05:10;29.80;;;19.67;;
18340;SDS011;9296;48.084;16.352;2023-03-01T17:07:38;32.70;;;19.38;;
18340;SDS011;9296;48.084;16.352;2023-03-01T17:10:08;32.70;;;19.52;;
18340;SDS011;9296;48.084;16.352;2023-03-01T17:12:36;34.35;;;20.35;;
18340;SDS011;9296;48.084;16.352;2023-03-01T17:15:04;35.28;;;20.77;;
18340;SDS011;9296;48.084;16.352;2023-03-01T17:17:31;34.55;;;20.52;;
18340;SDS011;9296;48.084;16.352;2023-03-01T17:19:59;29.85;;;20.13;;
18340;SDS011;9296;48.084;16.352;2023-03-01T17:22:26;32.67;;;20.75;;